Flight Track Log - Related Links

Times and Time Zones

All times are in EDT time to prevent confusion due to time zone crossing. See the N29134 flight status page for this flight to view local times or setup timezone preferences in your user account.

Time Position Orientation Groundspeed Altitude Reporting Facility
EDT Latitude Longitude Course Direction KTS MPH feet Rate Location/Type
Wed 08:49:29 PM 41.2819 -75.6964 35° Northeast 93 107 7,500  Level New York Center
Wed 08:50:27 PM 41.3339 -75.6450 37° Northeast 169 194 9,300 2,017 Climbing New York Center
Wed 08:51:28 PM 41.3022 -75.5542 115° Southeast 170 196 11,500 1,918 Climbing New York Center
Wed 08:52:00 PM 41.2402 -75.1411 102° East  Level FlightAware Approximate
Wed 08:52:29 PM 41.2581 -75.4628 123° Southeast 261 300 13,200  Level New York Center
Wed 08:53:29 PM 41.2103 -75.3519 120° Southeast 309 356 15,500 2,067 Climbing New York Center
Wed 08:54:28 PM 41.1642 -75.2494 121° Southeast 315 362 17,300 1,700 Climbing New York Center
Wed 08:55:29 PM 41.1239 -75.1561 120° Southeast 328 377 18,900 857 Climbing New York Center
Wed 08:56:27 PM 41.0739 -75.0428 120° Southeast 346 398 19,000 50 Climbing New York Center
Wed 08:57:29 PM 41.0167 -74.8989 118° Southeast 387 445 19,000  Level New York Center
Wed 08:58:27 PM 40.9944 -74.7517 101° East 405 466 19,000  Level New York Center
Wed 08:59:31 PM 40.9936 -74.5869 90° East 433 498 19,000  Level New York Center
Wed 09:00:27 PM 41.0333 -74.4569 68° East 398 458 19,000  Level New York Center
Wed 09:01:27 PM 41.0744 -74.3381 65° Northeast 363 418 19,000  Level New York Center
Wed 09:02:28 PM 41.0489 -74.2131 105° East 337 388 19,000  Level New York Center
Wed 09:03:05 PM 41.0000 -74.1667 144° Southeast 355 409 19,000 -132 Level New York TRACON
Wed 09:03:59 PM 40.9000 -74.1333 166° South 345 397 18,800 -889 Descending New York TRACON
Wed 09:04:53 PM 40.8167 -74.1000 163° South 343 395 17,400 -1,474 Descending New York TRACON
Wed 09:05:53 PM 40.7333 -74.0667 163° South 332 382 16,000 -1,190 Descending New York TRACON
Wed 09:06:59 PM 40.6500 -74.0167 156° South 336 387 14,900 -1,250 Descending New York TRACON
Wed 09:07:53 PM 40.5667 -73.9667 155° Southeast 345 397 13,500 -1,550 Descending New York TRACON
Wed 09:08:59 PM 40.5000 -73.8833 136° Southeast 319 367 11,800 -1,600 Descending New York TRACON
Wed 09:09:53 PM 40.4333 -73.8333 150° Southeast 297 342 10,300 -1,842 Descending New York TRACON
Wed 09:10:53 PM 40.3667 -73.7667 143° Southeast 290 334 8,300 -2,000 Descending New York TRACON
Wed 09:11:59 PM 40.3333 -73.6667 114° Southeast 278 320 6,100 -2,000 Descending New York TRACON
Wed 09:12:59 PM 40.3500 -73.5833 75° East 262 302 4,100 -1,050 Descending New York TRACON
Wed 09:13:59 PM 40.3833 -73.4833 66° East 278 320 4,000 -53 Descending New York TRACON
Wed 09:14:53 PM 40.4167 -73.4167 57° Northeast 278 320 4,000  Level New York TRACON
Wed 09:15:50 PM 40.4639 -73.3486 48° Northeast 279 321 4,000  Level Boston Center
Wed 09:16:51 PM 40.5092 -73.2661 54° Northeast 279 321 4,000  Level Boston Center
Wed 09:17:52 PM 40.5539 -73.1817 55° Northeast 279 321 4,000  Level Boston Center
Wed 09:18:54 PM 40.5989 -73.0978 55° Northeast 279 321 4,000  Level Boston Center
Wed 09:19:47 PM 40.6500 -73.0167 50° Northeast 272 313 4,000 -252 Level New York TRACON
Wed 09:20:53 PM 40.6833 -72.9167 66° East 271 312 3,500 -850 Descending New York TRACON
Wed 09:21:47 PM 40.7333 -72.8500 45° Northeast 241 277 2,300 -789 Descending New York TRACON
Wed 09:22:47 PM 40.7667 -72.8000 49° Northeast 202 232 2,000 -150 Descending New York TRACON
Wed 09:23:47 PM 40.7833 -72.7333 72° East 198 228 2,000 -250 Level New York TRACON
Wed 09:24:47 PM 40.8000 -72.6667 72° East 206 237 1,500 -250 Descending New York TRACON
Wed 09:25:47 PM 40.8333 -72.6000 57° Northeast 182 209 1,500 -150 Level New York TRACON
Wed 09:26:47 PM 40.8667 -72.5667 37° Northeast 156 180 1,200 -496 Descending New York TRACON
Wed 09:27:48 PM 40.8667 -72.6000 270° West 122 140 500 -328 Descending New York TRACON
Wed 09:30:08 PM 40.8419 -72.6347 227° Southwest 54 62 100 -119 Descending Boston Center
Wed 09:31:09 PM 40.8417 -72.6394 266° West 28 32 100  Level Boston Center
Wed 09:32:10 PM 40.8436 -72.6400 348° North 14 16 100  Level Boston Center
Wed 09:33:11 PM 40.8444 -72.6406 333° Northwest 8 9 100  Level Boston Center

Login

Don't have an account? Register now (free) for customized features, flight alerts, and more!